Time;durP1;ratioP1;P1;durP2;ratioP2;P2;SDS_P1;SDS_P2;PMS_P1;PMS_P2;Temp;Humidity;BMP_temperature;BMP_pressure;BME280_temperature;BME280_humidity;BME280_pressure;Samples;Min_cycle;Max_cycle;Signal;HPM_P1;HPM_P2
2022/01/10 00:00:32;;;;;;;52.08;15.15;;;;;;;7.59;100.00;95600.28;5006563;28;20061;-67
2022/01/10 00:02:59;;;;;;;47.67;15.32;;;;;;;7.61;100.00;95604.25;5007554;28;20084;-67
2022/01/10 00:05:26;;;;;;;45.42;14.02;;;;;;;7.14;100.00;95530.03;5007733;28;20116;-68
2022/01/10 00:07:53;;;;;;;41.30;12.00;;;;;;;7.36;100.00;95541.94;5007591;28;20129;-65
2022/01/10 00:10:20;;;;;;;44.40;14.65;;;;;;;7.77;100.00;95605.88;5007390;28;20054;-65
2022/01/10 00:12:47;;;;;;;41.58;13.75;;;;;;;7.76;100.00;95604.31;5006094;28;20056;-66
2022/01/10 00:15:16;;;;;;;44.65;16.80;;;;;;;7.86;100.00;95598.84;5007488;28;20054;-66
2022/01/10 00:17:44;;;;;;;55.92;16.80;;;;;;;7.80;100.00;95603.16;5006383;28;20050;-66
2022/01/10 00:20:14;;;;;;;39.45;16.10;;;;;;;7.81;100.00;95612.22;5007466;28;20061;-66
2022/01/10 00:22:46;;;;;;;44.30;13.90;;;;;;;7.84;100.00;95611.44;5007487;28;20087;-65
2022/01/10 00:25:16;;;;;;;36.90;11.70;;;;;;;7.71;100.00;95609.00;5007121;28;20136;-68
2022/01/10 00:27:43;;;;;;;52.38;13.25;;;;;;;7.24;100.00;95564.31;5007505;28;20389;-66
2022/01/10 00:30:11;;;;;;;38.78;11.98;;;;;;;7.33;100.00;95609.56;5006910;28;20062;-66
2022/01/10 00:32:39;;;;;;;41.85;12.05;;;;;;;6.60;100.00;95521.81;5007609;28;20065;-65
2022/01/10 00:35:08;;;;;;;52.58;13.02;;;;;;;7.46;100.00;95618.34;5007181;28;20436;-64
2022/01/10 00:37:35;;;;;;;54.38;13.23;;;;;;;6.75;100.00;95555.72;5006030;28;20057;-67
2022/01/10 00:40:04;;;;;;;38.10;12.80;;;;;;;6.99;100.00;95599.91;5007854;28;20058;-65
2022/01/10 00:42:32;;;;;;;37.95;11.55;;;;;;;7.16;100.00;95615.00;5007530;28;20053;-65
2022/01/10 00:45:02;;;;;;;38.10;12.13;;;;;;;7.20;100.00;95616.59;5007152;28;20057;-67
2022/01/10 00:47:28;;;;;;;45.08;12.85;;;;;;;6.79;100.00;95568.31;5005769;28;20156;-67
2022/01/10 00:49:55;;;;;;;40.88;12.05;;;;;;;7.24;100.00;95611.88;5006914;28;20535;-66
2022/01/10 00:52:22;;;;;;;37.95;12.25;;;;;;;6.98;100.00;95592.84;5013360;28;20125;-64
2022/01/10 00:54:49;;;;;;;52.25;14.68;;;;;;;7.39;100.00;95605.31;5026450;28;20527;-67
2022/01/10 00:57:15;;;;;;;52.72;15.45;;;;;;;6.94;100.00;95525.97;5026297;28;20057;-64
2022/01/10 00:59:42;;;;;;;48.65;13.85;;;;;;;7.45;100.00;95601.00;5026509;28;20088;-68
2022/01/10 01:02:09;;;;;;;39.20;13.60;;;;;;;7.46;100.00;95599.06;5026935;28;20049;-65
2022/01/10 01:04:36;;;;;;;43.50;13.52;;;;;;;7.12;100.00;95559.09;5026053;28;20132;-68
2022/01/10 01:07:02;;;;;;;40.05;12.93;;;;;;;7.09;100.00;95601.97;5024550;28;20053;-67
2022/01/10 01:09:31;;;;;;;56.42;13.68;;;;;;;7.12;100.00;95592.13;5025988;28;20050;-64
2022/01/10 01:25:22;;;;;;;54.33;13.98;;;;;;;6.96;100.00;95606.19;5025934;28;20053;-67
2022/01/10 01:27:52;;;;;;;54.47;16.42;;;;;;;6.66;100.00;95501.00;5026091;28;20045;-65
2022/01/10 01:30:19;;;;;;;71.03;17.98;;;;;;;7.18;100.00;95568.56;5025520;28;20061;-66
2022/01/10 01:32:46;;;;;;;62.33;17.63;;;;;;;6.73;100.00;95525.84;5025876;28;20056;-65
2022/01/10 01:35:13;;;;;;;62.75;17.25;;;;;;;7.20;100.00;95549.72;5024651;28;20057;-65
2022/01/10 01:37:39;;;;;;;60.85;16.83;;;;;;;6.50;100.00;95418.00;5025895;28;20061;-65
2022/01/10 01:40:08;;;;;;;53.67;16.13;;;;;;;7.06;100.00;95503.63;5026078;28;20056;-65
2022/01/10 01:42:39;;;;;;;62.20;17.20;;;;;;;7.51;100.00;95554.59;5024671;28;20063;-66
2022/01/10 01:45:08;;;;;;;66.68;17.80;;;;;;;7.55;100.00;95567.22;5026084;28;20049;-66
2022/01/10 01:47:35;;;;;;;58.92;16.08;;;;;;;7.63;100.00;95552.28;5024287;28;20160;-66
2022/01/10 01:50:05;;;;;;;61.38;17.77;;;;;;;7.66;100.00;95567.25;5025411;28;20528;-65
2022/01/10 01:52:31;;;;;;;58.45;17.88;;;;;;;7.00;100.00;95513.41;5017949;28;20052;-65
2022/01/10 01:54:59;;;;;;;61.53;17.15;;;;;;;7.45;100.00;95556.94;5005522;28;20425;-66
2022/01/10 01:57:27;;;;;;;58.80;16.92;;;;;;;7.51;100.00;95560.09;5005938;28;20176;-64
2022/01/10 01:59:54;;;;;;;61.35;17.55;;;;;;;7.17;100.00;95518.25;5004573;28;20056;-66
2022/01/10 02:02:21;;;;;;;66.85;17.35;;;;;;;7.27;100.00;95553.28;5006112;28;20064;-65
2022/01/10 02:04:48;;;;;;;69.45;18.42;;;;;;;7.01;100.00;95542.53;5005461;28;20052;-66
2022/01/10 02:07:16;;;;;;;67.93;20.98;;;;;;;7.25;100.00;95558.41;5004210;28;20058;-65
2022/01/10 02:09:43;;;;;;;70.13;19.80;;;;;;;7.30;100.00;95533.25;5005711;28;20056;-66
2022/01/10 02:12:10;;;;;;;60.65;18.58;;;;;;;7.61;100.00;95565.66;5005590;28;20049;-65
2022/01/10 02:14:39;;;;;;;67.28;18.75;;;;;;;7.70;100.00;95563.34;5005609;28;20050;-66
2022/01/10 02:17:07;;;;;;;61.47;18.42;;;;;;;7.52;100.00;95567.97;5005821;28;20053;-66
2022/01/10 02:19:33;;;;;;;62.72;18.65;;;;;;;7.55;100.00;95564.47;5002981;28;20049;-65
2022/01/10 02:22:00;;;;;;;60.60;19.08;;;;;;;7.53;100.00;95574.28;5005568;28;20054;-66
2022/01/10 02:24:27;;;;;;;51.95;15.60;;;;;;;7.27;100.00;95578.06;5005022;28;20061;-65
2022/01/10 02:26:53;;;;;;;65.30;19.88;;;;;;;7.16;100.00;95576.44;5005189;28;20069;-67
2022/01/10 02:29:20;;;;;;;71.65;17.75;;;;;;;7.08;100.00;95585.84;5003806;28;20072;-67
2022/01/10 02:31:48;;;;;;;64.82;17.35;;;;;;;6.87;100.00;95550.69;5004875;28;20062;-66
2022/01/10 02:34:18;;;;;;;62.65;17.52;;;;;;;7.10;100.00;95573.25;5005379;28;20143;-66
2022/01/10 02:36:45;;;;;;;65.93;17.35;;;;;;;7.26;100.00;95565.50;5005117;28;20079;-66
2022/01/10 02:39:12;;;;;;;68.97;18.10;;;;;;;6.97;100.00;95494.91;5004597;28;20080;-66
2022/01/10 02:41:43;;;;;;;70.55;17.98;;;;;;;7.45;100.00;95551.44;5003146;28;20467;-65
2022/01/10 02:44:13;;;;;;;57.53;17.25;;;;;;;7.38;100.00;95534.09;5004726;28;20520;-66
2022/01/10 02:46:41;;;;;;;65.00;19.88;;;;;;;7.51;100.00;95552.63;5004770;28;20054;-66
2022/01/10 02:49:08;;;;;;;69.78;20.70;;;;;;;7.41;100.00;95545.09;5004640;28;20053;-66
2022/01/10 02:51:35;;;;;;;108.38;44.28;;;;;;;7.74;100.00;95558.63;5003384;28;20065;-66
2022/01/10 02:54:02;;;;;;;64.88;21.98;;;;;;;7.74;100.00;95566.88;5023340;28;20049;-66
2022/01/10 02:56:29;;;;;;;53.33;16.80;;;;;;;7.73;100.00;95556.25;5023914;28;20057;-65
2022/01/10 02:58:56;;;;;;;53.53;16.73;;;;;;;7.84;100.00;95561.81;5023963;28;20057;-66
2022/01/10 03:01:23;;;;;;;47.78;15.05;;;;;;;7.58;100.00;95543.59;5023867;28;20510;-67
2022/01/10 03:03:50;;;;;;;61.50;17.27;;;;;;;7.57;100.00;95556.59;5023841;28;20447;-65
2022/01/10 03:06:17;;;;;;;56.55;17.02;;;;;;;7.51;100.00;95527.84;5022495;28;20068;-65
2022/01/10 03:08:43;;;;;;;52.35;17.00;;;;;;;7.69;100.00;95550.75;5022855;28;20055;-66
2022/01/10 03:11:10;;;;;;;55.72;16.77;;;;;;;7.76;100.00;95554.69;5023649;28;20522;-66
2022/01/10 03:13:37;;;;;;;51.80;16.20;;;;;;;7.79;100.00;95559.44;5022410;28;20064;-65
2022/01/10 03:16:04;;;;;;;54.33;14.77;;;;;;;7.48;100.00;95556.16;5023884;28;20060;-66
2022/01/10 03:18:31;;;;;;;46.70;15.38;;;;;;;7.45;100.00;95550.63;5022585;28;20127;-65
2022/01/10 03:20:57;;;;;;;56.30;16.27;;;;;;;7.64;100.00;95553.88;5024089;28;20049;-66
2022/01/10 03:23:24;;;;;;;52.38;16.88;;;;;;;7.72;100.00;95561.00;5024121;28;20053;-66
2022/01/10 03:25:51;;;;;;;56.92;16.58;;;;;;;7.37;100.00;95494.72;5023858;28;20046;-66
2022/01/10 03:28:17;;;;;;;56.28;16.80;;;;;;;7.93;100.00;95559.47;5022755;28;20059;-66
2022/01/10 03:30:44;;;;;;;93.90;33.15;;;;;;;7.58;100.00;95505.84;5022342;28;20053;-66
2022/01/10 03:33:11;;;;;;;58.22;24.30;;;;;;;7.86;100.00;95559.44;5023814;28;20049;-65
2022/01/10 03:35:38;;;;;;;51.45;17.80;;;;;;;7.87;100.00;95552.78;5022178;28;20060;-65
2022/01/10 03:38:05;;;;;;;61.58;19.90;;;;;;;7.89;100.00;95553.94;5021966;28;20678;-67
2022/01/10 03:40:32;;;;;;;57.42;17.70;;;;;;;7.98;100.00;95553.59;5023826;28;20057;-66
2022/01/10 03:42:59;;;;;;;56.05;17.95;;;;;;;8.03;100.00;95553.22;5023943;28;20534;-66
2022/01/10 03:45:25;;;;;;;58.25;16.65;;;;;;;7.99;100.00;95557.91;5022075;28;20065;-66
2022/01/10 03:47:52;;;;;;;58.10;18.30;;;;;;;7.98;100.00;95561.88;5022431;28;20072;-66
2022/01/10 03:50:19;;;;;;;72.72;24.63;;;;;;;8.07;100.00;95576.06;5022146;28;20045;-67
2022/01/10 03:52:45;;;;;;;72.53;22.40;;;;;;;8.03;100.00;95564.25;5014932;28;20070;-67
2022/01/10 03:55:12;;;;;;;75.57;23.08;;;;;;;7.98;100.00;95573.69;5003690;28;20049;-66
2022/01/10 03:57:39;;;;;;;70.68;21.42;;;;;;;7.92;100.00;95557.91;5004195;28;20046;-68
2022/01/10 04:00:07;;;;;;;71.10;20.63;;;;;;;8.07;100.00;95570.53;5003870;28;20536;-66
2022/01/10 04:02:36;;;;;;;60.63;20.23;;;;;;;7.81;100.00;95546.06;5004345;28;20056;-67
2022/01/10 04:05:03;;;;;;;60.17;18.50;;;;;;;7.94;100.00;95569.31;5003369;28;20054;-66
2022/01/10 04:07:30;;;;;;;57.13;17.20;;;;;;;7.50;100.00;95509.75;5003694;28;20505;-66
2022/01/10 04:09:57;;;;;;;55.70;19.92;;;;;;;7.81;100.00;95562.59;5001913;28;20053;-68
2022/01/10 04:12:24;;;;;;;57.20;20.20;;;;;;;7.53;100.00;95542.03;5001870;28;20058;-66
2022/01/10 04:14:51;;;;;;;58.33;21.50;;;;;;;7.23;100.00;95493.88;5003491;28;20060;-66
2022/01/10 04:17:18;;;;;;;67.55;22.33;;;;;;;7.64;100.00;95553.88;5003370;28;20493;-66
2022/01/10 04:19:45;;;;;;;51.10;18.40;;;;;;;7.94;100.00;95578.38;5002390;28;20054;-67
2022/01/10 04:22:12;;;;;;;47.25;16.77;;;;;;;7.92;100.00;95591.00;5001788;28;20506;-68
2022/01/10 04:24:39;;;;;;;48.83;17.80;;;;;;;7.70;100.00;95568.84;5003253;28;20054;-66
2022/01/10 04:27:06;;;;;;;41.35;15.65;;;;;;;7.93;100.00;95614.63;5001557;28;20149;-66
2022/01/10 04:29:33;;;;;;;44.33;17.15;;;;;;;7.55;100.00;95549.91;5003223;28;20058;-67
2022/01/10 04:32:00;;;;;;;56.08;19.55;;;;;;;7.84;100.00;95578.34;5001431;28;20054;-68
2022/01/10 04:34:27;;;;;;;40.35;16.33;;;;;;;7.92;100.00;95596.50;5003018;28;20072;-68
2022/01/10 04:36:54;;;;;;;41.03;16.15;;;;;;;7.33;100.00;95526.97;5003489;28;20042;-68
2022/01/10 04:39:21;;;;;;;52.00;16.08;;;;;;;7.87;100.00;95605.16;5002792;28;20061;-66
2022/01/10 04:41:48;;;;;;;53.65;17.23;;;;;;;7.85;100.00;95601.97;5003417;28;20050;-66
2022/01/10 04:44:14;;;;;;;54.05;19.40;;;;;;;7.72;100.00;95577.53;5005975;28;20050;-67
2022/01/10 04:46:41;;;;;;;41.17;15.50;;;;;;;7.63;100.00;95585.34;5007068;28;20116;-66
2022/01/10 04:49:17;;;;;;;45.08;16.77;;;;;;;7.45;100.00;95572.66;5006707;28;20056;-65
2022/01/10 04:51:44;;;;;;;44.63;16.13;;;;;;;7.76;100.00;95604.31;5005597;28;20060;-67
2022/01/10 04:54:10;;;;;;;44.42;16.88;;;;;;;7.88;100.00;95606.72;5006837;28;20050;-65
2022/01/10 04:56:37;;;;;;;45.83;15.40;;;;;;;7.17;100.00;95489.91;5006627;28;20050;-65
2022/01/10 04:59:04;;;;;;;37.38;15.70;;;;;;;7.76;100.00;95593.28;5005345;28;20054;-65
2022/01/10 05:01:30;;;;;;;43.40;15.35;;;;;;;7.44;100.00;95543.56;5005271;28;20064;-65
2022/01/10 05:03:57;;;;;;;42.38;16.50;;;;;;;7.83;100.00;95609.84;5006372;28;20061;-64
2022/01/10 05:06:24;;;;;;;38.90;16.52;;;;;;;7.85;100.00;95618.50;5006748;28;20062;-65
2022/01/10 05:08:51;;;;;;;50.95;17.73;;;;;;;7.75;100.00;95598.00;5004790;28;20053;-68
2022/01/10 05:11:19;;;;;;;49.80;16.65;;;;;;;7.35;100.00;95552.16;5006498;28;20057;-65
2022/01/10 05:13:47;;;;;;;44.03;14.98;;;;;;;7.45;100.00;95578.97;5004499;28;20053;-66
2022/01/10 05:16:15;;;;;;;48.20;16.38;;;;;;;7.82;100.00;95619.28;5006001;28;20056;-65
2022/01/10 05:18:42;;;;;;;40.17;16.83;;;;;;;7.43;100.00;95575.81;5006210;28;20068;-64
2022/01/10 05:21:10;;;;;;;45.13;17.23;;;;;;;7.39;100.00;95555.72;5005050;28;20225;-66
2022/01/10 05:23:36;;;;;;;42.13;16.55;;;;;;;7.70;100.00;95612.94;5006102;28;20133;-66
2022/01/10 05:26:03;;;;;;;46.80;16.65;;;;;;;7.49;100.00;95596.28;5004438;28;20046;-65
2022/01/10 05:28:30;;;;;;;36.78;14.95;;;;;;;7.49;100.00;95612.81;5004448;28;20050;-64
2022/01/10 05:31:00;;;;;;;41.58;17.02;;;;;;;7.13;100.00;95566.97;5005422;28;20072;-66
2022/01/10 05:33:27;;;;;;;62.13;20.73;;;;;;;7.34;100.00;95618.63;5004760;28;20057;-65
2022/01/10 05:35:54;;;;;;;49.90;18.40;;;;;;;7.36;100.00;95625.34;5005833;28;20062;-65
2022/01/10 05:38:20;;;;;;;53.67;19.45;;;;;;;7.05;100.00;95598.38;5006238;28;20429;-65
2022/01/10 05:40:47;;;;;;;46.75;18.42;;;;;;;7.08;100.00;95581.09;5005814;28;20057;-66
2022/01/10 05:43:14;;;;;;;53.85;17.52;;;;;;;7.35;100.00;95629.28;5006399;28;20062;-66
2022/01/10 05:45:43;;;;;;;46.20;16.42;;;;;;;7.07;100.00;95598.81;5006275;28;20543;-66
2022/01/10 05:48:13;;;;;;;49.92;18.42;;;;;;;7.32;100.00;95635.53;5005814;28;20061;-65
2022/01/10 05:50:43;;;;;;;46.28;17.40;;;;;;;6.82;100.00;95561.25;5006013;28;20424;-66
2022/01/10 05:53:10;;;;;;;41.13;17.50;;;;;;;7.38;100.00;95639.50;5016572;28;20413;-66
2022/01/10 05:55:38;;;;;;;44.95;17.75;;;;;;;6.74;100.00;95537.63;5024315;28;20060;-65
2022/01/10 05:58:05;;;;;;;41.92;17.65;;;;;;;7.43;100.00;95652.13;5025056;28;20135;-65
2022/01/10 06:00:34;;;;;;;40.50;16.50;;;;;;;7.41;100.00;95649.75;5025221;28;20080;-67
2022/01/10 06:03:02;;;;;;;43.10;15.25;;;;;;;7.09;100.00;95610.22;5031363;28;20048;-65
2022/01/10 06:05:33;;;;;;;38.30;16.13;;;;;;;7.36;100.00;95652.09;5045160;28;20060;-65
2022/01/10 06:08:03;;;;;;;43.95;15.95;;;;;;;7.35;100.00;95654.06;5045265;28;20060;-67
2022/01/10 06:10:30;;;;;;;47.33;18.73;;;;;;;7.40;100.00;95653.69;5043611;28;20056;-65
2022/01/10 06:12:58;;;;;;;49.50;20.05;;;;;;;7.44;100.00;95660.03;5044415;28;20558;-66
2022/01/10 06:15:25;;;;;;;57.63;25.45;;;;;;;7.47;100.00;95675.00;5044485;28;20055;-66
2022/01/10 06:17:51;;;;;;;42.85;18.77;;;;;;;7.56;100.00;95667.19;5043305;28;20061;-65
2022/01/10 06:20:20;;;;;;;53.55;21.85;;;;;;;7.43;100.00;95657.63;5043122;28;20067;-67
2022/01/10 06:22:46;;;;;;;50.92;20.08;;;;;;;7.38;100.00;95656.03;5043591;28;20208;-68
2022/01/10 06:25:17;;;;;;;55.38;21.00;;;;;;;7.16;100.00;95672.81;5044749;28;20063;-68
2022/01/10 06:27:43;;;;;;;51.40;21.75;;;;;;;7.51;100.00;95676.59;5044819;28;20064;-67
2022/01/10 06:30:10;;;;;;;51.30;21.27;;;;;;;7.52;100.00;95672.66;5043025;28;20053;-67
2022/01/10 06:32:37;;;;;;;55.03;23.95;;;;;;;7.55;100.00;95677.44;5042959;28;20061;-65
2022/01/10 06:35:04;;;;;;;74.88;32.35;;;;;;;7.62;100.00;95677.47;5044214;28;20061;-67
2022/01/10 06:37:32;;;;;;;73.45;28.17;;;;;;;7.60;100.00;95679.78;5044486;28;20056;-66
2022/01/10 06:39:59;;;;;;;90.80;36.47;;;;;;;7.70;100.00;95690.09;5044433;28;20052;-67
2022/01/10 06:42:26;;;;;;;89.88;32.95;;;;;;;7.68;100.00;95672.38;5044703;28;20053;-68
2022/01/10 06:44:52;;;;;;;87.03;32.78;;;;;;;7.73;100.00;95670.03;5045176;28;20060;-66
2022/01/10 06:47:19;;;;;;;86.20;26.40;;;;;;;7.72;100.00;95681.44;5043202;28;20430;-66
2022/01/10 06:49:46;;;;;;;112.45;36.00;;;;;;;7.59;100.00;95656.19;5044200;28;20049;-67
2022/01/10 06:52:13;;;;;;;124.18;39.17;;;;;;;7.65;100.00;95676.69;5040965;28;20045;-66
2022/01/10 06:54:40;;;;;;;84.65;34.42;;;;;;;7.62;100.00;95666.44;5022639;28;20539;-66
2022/01/10 06:57:07;;;;;;;79.03;32.90;;;;;;;7.85;100.00;95698.44;5024296;28;20069;-67
2022/01/10 06:59:34;;;;;;;80.50;29.83;;;;;;;7.93;100.00;95700.88;5023782;28;20056;-66
2022/01/10 07:02:01;;;;;;;117.85;43.97;;;;;;;7.70;100.00;95665.31;5024280;28;20068;-67
2022/01/10 07:04:28;;;;;;;93.68;40.50;;;;;;;7.94;100.00;95704.41;5022524;28;20087;-65
2022/01/10 07:06:55;;;;;;;65.95;27.10;;;;;;;7.97;100.00;95703.63;5023744;28;20072;-67
2022/01/10 07:09:22;;;;;;;45.63;19.42;;;;;;;7.45;100.00;95644.28;5023619;28;20512;-66
2022/01/10 07:11:48;;;;;;;39.83;16.67;;;;;;;7.78;100.00;95690.16;5036565;28;20049;-64
2022/01/10 07:14:17;;;;;;;47.60;18.10;;;;;;;7.83;100.00;95698.84;5041982;28;20048;-66
2022/01/10 07:16:44;;;;;;;36.78;14.70;;;;;;;7.62;100.00;95705.00;5043249;28;20049;-65
2022/01/10 07:19:10;;;;;;;44.72;15.50;;;;;;;6.76;100.00;95595.81;5043248;28;20428;-66
2022/01/10 07:21:39;;;;;;;50.67;17.70;;;;;;;7.35;100.00;95705.63;5043291;28;20495;-67
2022/01/10 07:24:07;;;;;;;39.10;15.45;;;;;;;7.02;100.00;95637.69;5043159;28;20045;-67
2022/01/10 07:26:34;;;;;;;43.53;15.65;;;;;;;7.30;100.00;95703.97;5043509;28;20056;-67
2022/01/10 07:29:03;;;;;;;51.67;17.98;;;;;;;7.27;100.00;95709.47;5043055;28;20052;-65
2022/01/10 07:31:30;;;;;;;56.38;19.40;;;;;;;7.27;100.00;95715.75;5043353;28;20447;-64
2022/01/10 07:33:57;;;;;;;59.88;19.27;;;;;;;7.14;100.00;95675.94;5041773;28;20512;-66
2022/01/10 07:36:24;;;;;;;55.95;20.98;;;;;;;6.89;100.00;95611.63;5043181;28;20143;-65
2022/01/10 07:38:51;;;;;;;47.00;20.15;;;;;;;7.60;100.00;95712.88;5036475;28;20460;-67
2022/01/10 07:41:18;;;;;;;59.42;21.20;;;;;;;7.11;100.00;95646.41;5009720;28;20045;-63
2022/01/10 07:43:45;;;;;;;53.13;18.58;;;;;;;7.35;100.00;95672.56;5023634;28;20053;-68
2022/01/10 07:46:12;;;;;;;53.03;20.65;;;;;;;7.05;100.00;95620.41;5027593;28;20053;-63
2022/01/10 07:48:40;;;;;;;61.70;21.75;;;;;;;7.73;100.00;95711.38;5027919;28;20494;-66
2022/01/10 07:51:11;;;;;;;51.60;21.02;;;;;;;7.16;100.00;95624.03;5042740;28;20515;-64
2022/01/10 07:53:40;;;;;;;46.08;20.70;;;;;;;7.15;100.00;95625.22;5040108;28;20055;-62
2022/01/10 07:56:07;;;;;;;44.55;19.55;;;;;;;7.85;100.00;95726.00;5042921;28;20055;-61
2022/01/10 07:58:35;;;;;;;50.20;21.60;;;;;;;7.42;100.00;95661.59;5042218;28;20049;-65
2022/01/10 08:01:02;;;;;;;44.03;18.75;;;;;;;6.70;100.00;95548.59;5003435;28;20069;-66
2022/01/10 08:03:30;;;;;;;37.63;16.75;;;;;;;7.16;100.00;95613.00;5030875;28;20053;-63
2022/01/10 08:05:56;;;;;;;35.00;14.82;;;;;;;7.96;100.00;95729.63;5042467;28;20061;-61
2022/01/10 08:08:23;;;;;;;35.45;14.55;;;;;;;7.87;100.00;95738.25;5042844;28;20052;-65
2022/01/10 08:10:50;;;;;;;38.78;15.88;;;;;;;7.02;100.00;95614.88;5040693;28;20071;-62
2022/01/10 08:13:16;;;;;;;32.67;13.43;;;;;;;8.00;100.00;95741.47;5042665;28;20053;-63
2022/01/10 08:15:44;;;;;;;36.95;14.80;;;;;;;8.02;100.00;95733.59;5042801;28;20519;-62
2022/01/10 08:18:11;;;;;;;36.63;14.43;;;;;;;7.64;100.00;95697.16;5032198;28;20117;-66
2022/01/10 08:20:37;;;;;;;37.88;14.55;;;;;;;7.98;100.00;95743.81;5027882;28;20049;-62
2022/01/10 08:23:10;;;;;;;38.13;17.00;;;;;;;7.76;100.00;95714.53;5026835;28;20116;-63
2022/01/10 08:25:36;;;;;;;43.05;16.88;;;;;;;7.60;100.00;95685.31;5044404;28;20053;-62
2022/01/10 08:28:03;;;;;;;46.00;21.83;;;;;;;7.91;100.00;95743.78;5043771;28;20060;-64
2022/01/10 08:30:30;;;;;;;44.17;17.88;;;;;;;7.55;100.00;95702.22;5028869;28;20042;-67
2022/01/10 08:32:57;;;;;;;44.10;18.02;;;;;;;7.93;100.00;95744.19;5026727;28;20068;-62
2022/01/10 08:35:24;;;;;;;37.47;15.90;;;;;;;7.81;100.00;95722.47;5033832;28;20142;-64
2022/01/10 08:37:51;;;;;;;42.40;15.60;;;;;;;7.72;100.00;95742.88;5025564;28;20053;-68
2022/01/10 08:40:18;;;;;;;34.05;14.50;;;;;;;7.09;100.00;95631.44;5043384;28;20061;-67
2022/01/10 08:42:44;;;;;;;38.40;16.05;;;;;;;7.43;100.00;95668.66;5039525;28;20044;-67
2022/01/10 08:45:11;;;;;;;43.38;19.45;;;;;;;8.05;100.00;95738.34;5042548;28;20103;-69
2022/01/10 08:47:39;;;;;;;43.72;17.55;;;;;;;7.98;100.00;95741.06;5026086;28;20447;-66
2022/01/10 08:50:09;;;;;;;35.53;15.43;;;;;;;8.05;100.00;95738.34;5023804;28;20056;-69
2022/01/10 08:52:37;;;;;;;39.63;15.45;;;;;;;7.66;100.00;95705.84;5025640;28;20431;-68
2022/01/10 08:55:04;;;;;;;33.38;14.88;;;;;;;8.05;100.00;95738.34;5044154;28;20060;-63
2022/01/10 08:57:31;;;;;;;38.63;15.63;;;;;;;7.65;100.00;95665.66;5029205;28;20053;-67
2022/01/10 08:59:58;;;;;;;36.78;16.30;;;;;;;8.11;100.00;95728.53;5018879;28;20526;-64
2022/01/10 09:02:24;;;;;;;37.35;16.75;;;;;;;7.97;100.00;95698.91;5031663;28;20045;-63
2022/01/10 09:04:52;;;;;;;35.67;16.30;;;;;;;7.95;100.00;95706.00;5025868;28;20084;-61
2022/01/10 09:07:19;;;;;;;38.38;16.50;;;;;;;8.31;100.00;95729.84;5025972;28;20575;-67
2022/01/10 09:09:46;;;;;;;45.58;15.77;;;;;;;7.92;100.00;95679.22;5025133;28;20050;-67
2022/01/10 09:12:14;;;;;;;45.70;16.05;;;;;;;8.16;100.00;95728.16;5032159;28;20049;-64
2022/01/10 09:14:41;;;;;;;45.78;14.75;;;;;;;6.98;100.00;95603.06;5024247;28;20450;-65
2022/01/10 09:17:08;;;;;;;44.38;15.23;;;;;;;7.62;100.00;95729.81;5037716;28;20077;-66
2022/01/10 09:19:34;;;;;;;42.60;14.90;;;;;;;7.70;100.00;95720.41;5040365;28;20053;-60
2022/01/10 09:22:01;;;;;;;42.95;15.63;;;;;;;7.29;100.00;95702.41;5028739;28;20048;-63
2022/01/10 09:24:28;;;;;;;51.40;16.80;;;;;;;7.36;100.00;95685.97;5034745;28;20067;-63
2022/01/10 09:26:56;;;;;;;56.28;22.00;;;;;;;7.23;100.00;95632.34;5025511;28;20049;-66
2022/01/10 09:29:24;;;;;;;48.17;17.17;;;;;;;8.00;100.00;95724.94;5025217;28;20060;-63
2022/01/10 09:31:51;;;;;;;48.00;17.80;;;;;;;6.33;100.00;95487.41;5025005;28;20156;-67
2022/01/10 09:34:18;;;;;;;45.67;17.15;;;;;;;7.72;100.00;95720.84;5029551;28;20466;-62
2022/01/10 09:36:45;;;;;;;48.53;18.27;;;;;;;7.46;100.00;95668.69;5033120;28;20049;-63
2022/01/10 09:39:13;;;;;;;59.83;19.98;;;;;;;7.84;100.00;95714.19;5037576;28;20096;-68
2022/01/10 09:41:40;;;;;;;57.72;20.52;;;;;;;7.88;100.00;95711.47;5044814;28;20487;-66
2022/01/10 09:44:07;;;;;;;51.05;17.23;;;;;;;7.84;100.00;95700.41;5021658;28;20076;-61
2022/01/10 09:46:35;;;;;;;40.78;15.80;;;;;;;7.83;100.00;95675.97;5024703;28;20045;-65
2022/01/10 09:49:03;;;;;;;37.17;15.98;;;;;;;7.12;100.00;95564.59;5024742;28;20072;-64
2022/01/10 09:51:32;;;;;;;37.47;15.07;;;;;;;8.04;100.00;95714.69;5021434;28;20046;-61
2022/01/10 09:54:00;;;;;;;38.15;16.17;;;;;;;7.81;100.00;95678.34;5023928;28;20080;-63
2022/01/10 09:56:29;;;;;;;39.70;14.30;;;;;;;7.30;100.00;95631.59;5024867;28;20057;-63
2022/01/10 09:58:57;;;;;;;67.53;23.75;;;;;;;6.98;100.00;95539.75;5024090;28;20205;-64
2022/01/10 10:01:26;;;;;;;72.68;27.90;;;;;;;7.72;100.00;95664.91;5023606;28;20076;-63
2022/01/10 10:03:58;;;;;;;162.15;55.00;;;;;;;8.12;100.00;95716.31;5039610;28;20053;-64
2022/01/10 10:06:27;;;;;;;49.10;19.85;;;;;;;8.09;100.00;95717.09;5038443;28;20045;-63
2022/01/10 10:09:03;;;;;;;41.53;18.42;;;;;;;7.87;100.00;95660.28;5011600;28;20133;-68
2022/01/10 10:11:43;;;;;;;35.10;13.98;;;;;;;8.11;100.00;95717.50;5020489;28;20050;-67
2022/01/10 10:14:12;;;;;;;31.98;13.70;;;;;;;8.00;100.00;95713.91;5027678;28;20045;-69
2022/01/10 10:16:46;;;;;;;32.00;14.10;;;;;;;8.11;100.00;95726.56;5023017;28;20444;-63
2022/01/10 10:19:16;;;;;;;32.03;13.20;;;;;;;7.58;100.00;95643.59;5029207;28;20136;-66
2022/01/10 10:21:42;;;;;;;35.42;15.65;;;;;;;6.71;100.00;95517.16;5029095;28;20234;-68
2022/01/10 10:24:09;;;;;;;33.17;15.25;;;;;;;7.77;100.00;95678.34;5030578;28;20049;-64
2022/01/10 10:26:36;;;;;;;35.90;14.23;;;;;;;8.13;100.00;95715.13;5027743;28;20045;-62
2022/01/10 10:29:03;;;;;;;33.45;14.40;;;;;;;7.78;100.00;95668.13;5024505;28;20156;-64
2022/01/10 10:31:36;;;;;;;35.53;14.48;;;;;;;7.30;100.00;95582.03;5021728;28;20140;-63
2022/01/10 10:34:04;;;;;;;;;;;;;;;8.16;100.00;95712.41;5036657;28;20060;-62
2022/01/10 10:36:36;;;;;;;32.03;13.18;;;;;;;8.20;100.00;95702.19;5030517;28;20375;-70
2022/01/10 10:39:07;;;;;;;34.58;14.27;;;;;;;8.30;100.00;95722.75;5036010;28;20057;-69
2022/01/10 10:41:35;;;;;;;33.05;12.95;;;;;;;8.16;100.00;95706.09;5025721;28;20566;-65
2022/01/10 10:44:04;;;;;;;38.30;17.58;;;;;;;7.36;100.00;95570.28;5030202;28;20049;-63
2022/01/10 10:46:31;;;;;;;48.42;20.98;;;;;;;7.82;100.00;95647.66;5027737;28;20048;-67
2022/01/10 10:49:08;;;;;;;39.90;16.45;;;;;;;8.31;100.00;95705.00;5025769;28;20055;-62
2022/01/10 10:51:36;;;;;;;46.85;18.17;;;;;;;8.18;100.00;95671.44;5024603;28;20045;-66
2022/01/10 10:54:09;;;;;;;47.88;16.52;;;;;;;7.87;100.00;95628.00;5047326;28;20420;-66
2022/01/10 10:56:39;;;;;;;50.83;17.37;;;;;;;7.19;100.00;95521.38;5033784;28;20156;-67
2022/01/10 10:59:07;;;;;;;41.50;16.80;;;;;;;8.33;100.00;95710.94;5024515;28;20131;-65
2022/01/10 11:01:36;;;;;;;36.03;13.68;;;;;;;8.19;100.00;95705.34;5022432;28;20195;-66
2022/01/10 11:04:05;;;;;;;35.45;15.27;;;;;;;8.42;100.00;95708.59;5022250;28;20085;-66
2022/01/10 11:06:32;;;;;;;37.65;16.88;;;;;;;8.09;100.00;95645.41;5024002;28;20046;-67
2022/01/10 11:09:04;;;;;;;39.65;17.20;;;;;;;8.66;100.00;95714.19;5028260;28;20049;-66
2022/01/10 11:11:31;;;;;;;35.90;14.90;;;;;;;8.00;100.00;95600.88;5044202;28;20056;-66
2022/01/10 11:14:00;;;;;;;34.75;13.77;;;;;;;8.50;100.00;95682.63;5044067;28;20059;-68
2022/01/10 11:16:27;;;;;;;23.73;11.20;;;;;;;8.63;100.00;95711.44;5042466;28;20507;-64
2022/01/10 11:18:55;;;;;;;25.85;10.07;;;;;;;8.49;100.00;95684.56;5043409;28;20139;-65
2022/01/10 11:21:25;;;;;;;21.48;9.95;;;;;;;8.76;100.00;95712.63;5043855;28;20084;-65
2022/01/10 11:23:52;;;;;;;27.60;10.25;;;;;;;8.94;100.00;95707.94;5043659;28;20083;-65
2022/01/10 11:26:19;;;;;;;18.55;9.20;;;;;;;8.78;100.00;95715.81;5042271;28;20573;-65
2022/01/10 11:28:56;;;;;;;26.02;11.20;;;;;;;6.46;100.00;95400.69;5043079;28;20135;-66
2022/01/10 11:31:26;;;;;;;26.45;10.93;;;;;;;8.67;100.00;95714.97;5041777;28;20067;-66